Back to Top

Language: 

My Weather Underground Personal Weather Station Historical Data with Graphs...

Delerius Weather Station Historical Data
Daily Summary for June 24, 2017 Units:  English    Metric   Both
« Previous Day
Next Day »
Daily Weekly Monthly Yearly Custom
  High: Low: Average:
Temperature: 68.0 °F 55.8 °F 61.7 °F
Dew Point: 58.0 °F 50.4 °F 53.6 °F
Humidity: 91 % 59 % 76 %
Wind Speed: 15.0 mph 4.0 mph 9.7 mph
Wind Gust: 25.0 mph - -
Wind:- - West
Pressure: 29.86 in 29.78 in -
Precipitation: 0.00 in    
Historical Graphs
 
 
Tabular Data for June 24, 2017
Time Temperature Dew Point Pressure Wind Wind Speed Wind Gust Humidity Rainfall Rate (Hourly) solar Conditions
00:03 61.2 °F 57.9 °F 29.84 in SW 7.0 mph 12.0 mph 89 % 0.00 in 0 W/m2
00:08 61.2 °F 57.9 °F 29.84 in WSW 7.0 mph 12.0 mph 89 % 0.00 in 0 W/m2
00:13 61.2 °F 57.9 °F 29.84 in WSW 8.0 mph 12.0 mph 89 % 0.00 in 0 W/m2
00:18 61.0 °F 57.7 °F 29.84 in WSW 8.0 mph 12.0 mph 89 % 0.00 in 0 W/m2
00:23 61.2 °F 57.9 °F 29.84 in WSW 7.0 mph 11.0 mph 89 % 0.00 in 0 W/m2
00:28 61.2 °F 57.9 °F 29.84 in WSW 7.0 mph 13.0 mph 89 % 0.00 in 0 W/m2
00:33 61.2 °F 57.9 °F 29.83 in WSW 7.0 mph 13.0 mph 89 % 0.00 in 0 W/m2
00:38 61.0 °F 57.7 °F 29.84 in WSW 7.0 mph 11.0 mph 89 % 0.00 in 0 W/m2
00:43 61.0 °F 58.0 °F 29.83 in WSW 7.0 mph 11.0 mph 90 % 0.00 in 0 W/m2
00:45 61.0 °F 58.0 °F 29.83 in WSW 7.0 mph 11.0 mph 90 % 0.00 in 0 W/m2
00:50 61.0 °F 58.0 °F 29.83 in WSW 7.0 mph 10.0 mph 90 % 0.00 in 0 W/m2
00:55 60.8 °F 57.8 °F 29.83 in SW 8.0 mph 14.0 mph 90 % 0.00 in 0 W/m2
01:00 60.8 °F 57.8 °F 29.83 in SW 9.0 mph 14.0 mph 90 % 0.00 in 0 W/m2
01:05 60.6 °F 57.7 °F 29.83 in WSW 8.0 mph 14.0 mph 90 % 0.00 in 0 W/m2
01:10 60.6 °F 57.7 °F 29.83 in SW 7.0 mph 12.0 mph 90 % 0.00 in 0 W/m2
01:15 60.4 °F 57.5 °F 29.83 in SW 7.0 mph 11.0 mph 90 % 0.00 in 0 W/m2
01:20 60.4 °F 57.5 °F 29.83 in WSW 6.0 mph 11.0 mph 90 % 0.00 in 0 W/m2
01:25 60.4 °F 57.5 °F 29.83 in WSW 6.0 mph 11.0 mph 90 % 0.00 in 0 W/m2
01:30 60.3 °F 57.3 °F 29.83 in WSW 6.0 mph 9.0 mph 90 % 0.00 in 0 W/m2
01:35 60.3 °F 57.3 °F 29.83 in WSW 6.0 mph 9.0 mph 90 % 0.00 in 0 W/m2
01:40 60.3 °F 57.3 °F 29.82 in WSW 6.0 mph 14.0 mph 90 % 0.00 in 0 W/m2
01:45 60.3 °F 57.3 °F 29.82 in WSW 8.0 mph 15.0 mph 90 % 0.00 in 0 W/m2
01:50 60.3 °F 57.0 °F 29.82 in WSW 8.0 mph 15.0 mph 89 % 0.00 in 0 W/m2
01:55 60.4 °F 57.2 °F 29.82 in WSW 8.0 mph 13.0 mph 89 % 0.00 in 0 W/m2
02:00 60.4 °F 57.2 °F 29.82 in WSW 8.0 mph 14.0 mph 89 % 0.00 in 0 W/m2
02:05 60.4 °F 57.2 °F 29.82 in WSW 8.0 mph 14.0 mph 89 % 0.00 in 0 W/m2
02:10 60.6 °F 57.4 °F 29.83 in West 8.0 mph 13.0 mph 89 % 0.00 in 0 W/m2
02:15 60.4 °F 57.2 °F 29.83 in WNW 8.0 mph 14.0 mph 89 % 0.00 in 0 W/m2
02:20 60.1 °F 56.8 °F 29.83 in WNW 8.0 mph 14.0 mph 89 % 0.00 in 0 W/m2
02:25 59.5 °F 56.6 °F 29.83 in WNW 9.0 mph 14.0 mph 90 % 0.00 in 0 W/m2
02:30 59.2 °F 56.2 °F 29.84 in WNW 8.0 mph 14.0 mph 90 % 0.00 in 0 W/m2
02:35 59.0 °F 56.1 °F 29.84 in WNW 8.0 mph 13.0 mph 90 % 0.00 in 0 W/m2
02:40 58.6 °F 56.0 °F 29.84 in WNW 8.0 mph 14.0 mph 91 % 0.00 in 0 W/m2
02:45 58.5 °F 55.8 °F 29.84 in WNW 8.0 mph 14.0 mph 91 % 0.00 in 0 W/m2
02:50 58.3 °F 55.7 °F 29.84 in WNW 8.0 mph 13.0 mph 91 % 0.00 in 0 W/m2
02:55 57.9 °F 55.3 °F 29.84 in WNW 9.0 mph 21.0 mph 91 % 0.00 in 0 W/m2
03:00 57.7 °F 55.1 °F 29.84 in WNW 10.0 mph 21.0 mph 91 % 0.00 in 0 W/m2
03:05 57.4 °F 54.8 °F 29.85 in WNW 10.0 mph 21.0 mph 91 % 0.00 in 0 W/m2
03:10 57.2 °F 54.6 °F 29.85 in West 10.0 mph 21.0 mph 91 % 0.00 in 0 W/m2
03:15 57.0 °F 54.4 °F 29.84 in West 10.0 mph 18.0 mph 91 % 0.00 in 0 W/m2
03:20 57.0 °F 54.4 °F 29.84 in West 9.0 mph 15.0 mph 91 % 0.00 in 0 W/m2
03:26 56.8 °F 54.2 °F 29.84 in West 9.0 mph 14.0 mph 91 % 0.00 in 0 W/m2
03:31 56.8 °F 54.2 °F 29.84 in West 8.0 mph 14.0 mph 91 % 0.00 in 0 W/m2
03:36 56.7 °F 54.1 °F 29.84 in West 7.0 mph 13.0 mph 91 % 0.00 in 0 W/m2
03:41 56.5 °F 53.9 °F 29.84 in West 8.0 mph 13.0 mph 91 % 0.00 in 0 W/m2
03:46 56.1 °F 53.5 °F 29.84 in West 7.0 mph 13.0 mph 91 % 0.00 in 0 W/m2
03:51 56.1 °F 53.2 °F 29.84 in West 7.0 mph 13.0 mph 90 % 0.00 in 0 W/m2
03:56 55.9 °F 53.0 °F 29.84 in West 5.0 mph 10.0 mph 90 % 0.00 in 0 W/m2
04:01 55.9 °F 53.0 °F 29.84 in West 4.0 mph 7.0 mph 90 % 0.00 in 0 W/m2
04:06 55.8 °F 52.9 °F 29.84 in West 4.0 mph 7.0 mph 90 % 0.00 in 0 W/m2
04:11 55.8 °F 52.9 °F 29.84 in West 5.0 mph 8.0 mph 90 % 0.00 in 0 W/m2
04:16 55.8 °F 53.2 °F 29.84 in West 5.0 mph 8.0 mph 91 % 0.00 in 0 W/m2
04:21 55.9 °F 53.4 °F 29.84 in West 5.0 mph 10.0 mph 91 % 0.00 in 0 W/m2
04:26 55.9 °F 53.0 °F 29.84 in West 6.0 mph 10.0 mph 90 % 0.00 in 0 W/m2
04:31 56.1 °F 53.2 °F 29.84 in West 6.0 mph 14.0 mph 90 % 0.00 in 0 W/m2
04:36 56.1 °F 53.2 °F 29.84 in West 6.0 mph 14.0 mph 90 % 0.00 in 0 W/m2
04:41 56.1 °F 52.9 °F 29.84 in West 6.0 mph 13.0 mph 89 % 0.00 in 5 W/m2
04:46 56.1 °F 52.9 °F 29.84 in West 6.0 mph 13.0 mph 89 % 0.00 in 7 W/m2
04:51 56.1 °F 52.9 °F 29.84 in West 6.0 mph 13.0 mph 89 % 0.00 in 7 W/m2
04:56 56.1 °F 52.9 °F 29.84 in West 6.0 mph 13.0 mph 89 % 0.00 in 7 W/m2
05:01 56.1 °F 52.9 °F 29.84 in West 6.0 mph 11.0 mph 89 % 0.00 in 9 W/m2
05:06 56.1 °F 52.9 °F 29.84 in West 6.0 mph 11.0 mph 89 % 0.00 in 9 W/m2
05:11 56.1 °F 52.6 °F 29.84 in West 7.0 mph 11.0 mph 88 % 0.00 in 11 W/m2
05:16 56.3 °F 52.8 °F 29.83 in West 8.0 mph 13.0 mph 88 % 0.00 in 16 W/m2
05:21 56.5 °F 53.0 °F 29.83 in West 8.0 mph 14.0 mph 88 % 0.00 in 16 W/m2
05:26 56.5 °F 53.0 °F 29.83 in West 8.0 mph 14.0 mph 88 % 0.00 in 16 W/m2
05:31 56.5 °F 52.7 °F 29.83 in West 7.0 mph 13.0 mph 87 % 0.00 in 14 W/m2
05:36 56.5 °F 52.7 °F 29.84 in West 8.0 mph 14.0 mph 87 % 0.00 in 14 W/m2
05:41 56.5 °F 52.7 °F 29.84 in West 9.0 mph 14.0 mph 87 % 0.00 in 18 W/m2
05:46 56.3 °F 52.5 °F 29.84 in West 7.0 mph 12.0 mph 87 % 0.00 in 18 W/m2
05:51 56.1 °F 52.3 °F 29.84 in West 6.0 mph 11.0 mph 87 % 0.00 in 19 W/m2
05:56 56.1 °F 52.3 °F 29.84 in West 6.0 mph 11.0 mph 87 % 0.00 in 23 W/m2
06:01 56.1 °F 52.3 °F 29.84 in West 7.0 mph 13.0 mph 87 % 0.00 in 35 W/m2
06:06 56.5 °F 52.7 °F 29.84 in West 9.0 mph 18.0 mph 87 % 0.00 in 139 W/m2
06:11 56.7 °F 52.5 °F 29.84 in West 10.0 mph 20.0 mph 86 % 0.00 in 46 W/m2
06:16 56.8 °F 52.4 °F 29.84 in West 10.0 mph 20.0 mph 85 % 0.00 in 53 W/m2
06:21 57.0 °F 52.6 °F 29.84 in West 9.0 mph 18.0 mph 85 % 0.00 in 51 W/m2
06:26 57.2 °F 52.7 °F 29.84 in West 9.0 mph 16.0 mph 85 % 0.00 in 84 W/m2
06:31 57.4 °F 52.6 °F 29.84 in West 9.0 mph 15.0 mph 84 % 0.00 in 86 W/m2
06:36 57.6 °F 52.8 °F 29.85 in West 8.0 mph 12.0 mph 84 % 0.00 in 86 W/m2
06:41 57.6 °F 52.8 °F 29.85 in West 8.0 mph 12.0 mph 84 % 0.00 in 84 W/m2
06:46 57.6 °F 52.4 °F 29.85 in West 9.0 mph 14.0 mph 83 % 0.00 in 79 W/m2
06:51 57.6 °F 52.1 °F 29.85 in West 10.0 mph 14.0 mph 82 % 0.00 in 74 W/m2
06:56 57.6 °F 52.1 °F 29.85 in WSW 10.0 mph 16.0 mph 82 % 0.00 in 65 W/m2
07:01 57.6 °F 52.1 °F 29.85 in West 9.0 mph 16.0 mph 82 % 0.00 in 65 W/m2
07:06 57.6 °F 52.1 °F 29.85 in West 8.0 mph 14.0 mph 82 % 0.00 in 65 W/m2
07:11 57.6 °F 52.1 °F 29.86 in West 8.0 mph 15.0 mph 82 % 0.00 in 79 W/m2
07:16 57.7 °F 52.3 °F 29.86 in West 8.0 mph 15.0 mph 82 % 0.00 in 95 W/m2
07:21 57.7 °F 51.9 °F 29.86 in West 9.0 mph 16.0 mph 81 % 0.00 in 79 W/m2
07:26 57.7 °F 51.9 °F 29.86 in West 9.0 mph 16.0 mph 81 % 0.00 in 70 W/m2
07:31 57.7 °F 51.9 °F 29.86 in West 9.0 mph 19.0 mph 81 % 0.00 in 74 W/m2
07:36 57.7 °F 51.9 °F 29.86 in West 9.0 mph 19.0 mph 81 % 0.00 in 83 W/m2
07:41 57.7 °F 51.9 °F 29.86 in WSW 9.0 mph 15.0 mph 81 % 0.00 in 109 W/m2
07:46 57.7 °F 51.6 °F 29.86 in West 10.0 mph 20.0 mph 80 % 0.00 in 113 W/m2
07:52 57.9 °F 51.8 °F 29.86 in West 11.0 mph 20.0 mph 80 % 0.00 in 105 W/m2
07:57 58.1 °F 52.0 °F 29.86 in West 10.0 mph 16.0 mph 80 % 0.00 in 120 W/m2
08:02 58.1 °F 52.0 °F 29.86 in West 9.0 mph 15.0 mph 80 % 0.00 in 113 W/m2
08:07 58.3 °F 52.1 °F 29.86 in West 8.0 mph 15.0 mph 80 % 0.00 in 125 W/m2
08:12 58.3 °F 52.1 °F 29.86 in West 8.0 mph 13.0 mph 80 % 0.00 in 135 W/m2
08:17 58.3 °F 52.1 °F 29.86 in West 9.0 mph 18.0 mph 80 % 0.00 in 188 W/m2
08:22 58.5 °F 52.0 °F 29.86 in West 10.0 mph 18.0 mph 79 % 0.00 in 181 W/m2
08:27 58.6 °F 52.1 °F 29.86 in West 11.0 mph 19.0 mph 79 % 0.00 in 216 W/m2
08:32 58.8 °F 52.3 °F 29.86 in West 11.0 mph 19.0 mph 79 % 0.00 in 229 W/m2
08:37 59.2 °F 52.3 °F 29.86 in West 10.0 mph 18.0 mph 78 % 0.00 in 278 W/m2
08:42 59.4 °F 52.1 °F 29.86 in West 10.0 mph 18.0 mph 77 % 0.00 in 243 W/m2
08:47 59.7 °F 52.5 °F 29.86 in West 10.0 mph 16.0 mph 77 % 0.00 in 596 W/m2
08:52 60.4 °F 52.8 °F 29.86 in West 10.0 mph 16.0 mph 76 % 0.00 in 622 W/m2
08:57 61.3 °F 53.0 °F 29.86 in West 11.0 mph 23.0 mph 74 % 0.00 in 236 W/m2
09:02 61.7 °F 53.0 °F 29.86 in West 13.0 mph 23.0 mph 73 % 0.00 in 185 W/m2
09:07 61.9 °F 52.4 °F 29.86 in West 14.0 mph 23.0 mph 71 % 0.00 in 652 W/m2
09:12 62.1 °F 52.2 °F 29.86 in West 14.0 mph 24.0 mph 70 % 0.00 in 714 W/m2
09:17 62.2 °F 52.7 °F 29.85 in West 12.0 mph 24.0 mph 71 % 0.00 in 738 W/m2
09:22 62.6 °F 53.1 °F 29.86 in West 10.0 mph 18.0 mph 71 % 0.00 in 779 W/m2
09:27 62.4 °F 52.1 °F 29.86 in West 12.0 mph 23.0 mph 69 % 0.00 in 304 W/m2
09:32 62.1 °F 52.2 °F 29.86 in West 13.0 mph 23.0 mph 70 % 0.00 in 299 W/m2
09:37 61.9 °F 52.4 °F 29.85 in West 13.0 mph 22.0 mph 71 % 0.00 in 299 W/m2
09:42 62.1 °F 52.9 °F 29.86 in West 12.0 mph 20.0 mph 72 % 0.00 in 364 W/m2
09:47 62.1 °F 52.5 °F 29.86 in West 12.0 mph 21.0 mph 71 % 0.00 in 243 W/m2
09:52 62.2 °F 53.1 °F 29.85 in West 13.0 mph 23.0 mph 72 % 0.00 in 789 W/m2
09:57 62.4 °F 52.9 °F 29.85 in West 13.0 mph 23.0 mph 71 % 0.00 in 795 W/m2
10:02 63.0 °F 53.8 °F 29.85 in West 11.0 mph 22.0 mph 72 % 0.00 in 947 W/m2
10:07 63.5 °F 53.9 °F 29.85 in West 10.0 mph 22.0 mph 71 % 0.00 in 341 W/m2
10:12 63.9 °F 53.5 °F 29.85 in West 10.0 mph 24.0 mph 69 % 0.00 in 334 W/m2
10:17 63.1 °F 52.4 °F 29.85 in West 12.0 mph 25.0 mph 68 % 0.00 in 304 W/m2
10:22 62.4 °F 52.5 °F 29.85 in WSW 15.0 mph 25.0 mph 70 % 0.00 in 329 W/m2
10:27 62.2 °F 52.3 °F 29.85 in WSW 13.0 mph 22.0 mph 70 % 0.00 in 320 W/m2
10:32 62.1 °F 52.2 °F 29.85 in West 13.0 mph 21.0 mph 70 % 0.00 in 251 W/m2
10:38 62.1 °F 52.2 °F 29.85 in West 15.0 mph 23.0 mph 70 % 0.00 in 287 W/m2
10:39 62.1 °F 52.2 °F 29.85 in West 15.0 mph 23.0 mph 70 % 0.00 in 287 W/m2
10:44 62.2 °F 52.3 °F 29.85 in West 13.0 mph 23.0 mph 70 % 0.00 in 279 W/m2
10:49 62.2 °F 51.9 °F 29.86 in West 12.0 mph 21.0 mph 69 % 0.00 in 290 W/m2
10:54 62.4 °F 52.5 °F 29.86 in West 14.0 mph 23.0 mph 70 % 0.00 in 308 W/m2
10:59 62.2 °F 52.3 °F 29.86 in WSW 12.0 mph 23.0 mph 70 % 0.00 in 325 W/m2
11:04 62.4 °F 52.1 °F 29.86 in West 11.0 mph 20.0 mph 69 % 0.00 in 323 W/m2
11:09 62.4 °F 50.9 °F 29.86 in West 11.0 mph 20.0 mph 66 % 0.00 in 388 W/m2
11:14 62.8 °F 50.4 °F 29.86 in West 13.0 mph 22.0 mph 64 % 0.00 in 441 W/m2
11:19 63.1 °F 51.2 °F 29.86 in West 15.0 mph 25.0 mph 65 % 0.00 in 601 W/m2
11:24 63.5 °F 51.9 °F 29.85 in West 14.0 mph 25.0 mph 66 % 0.00 in 441 W/m2
11:29 63.7 °F 52.1 °F 29.86 in West 14.0 mph 22.0 mph 66 % 0.00 in 506 W/m2
11:34 63.7 °F 52.1 °F 29.86 in West 14.0 mph 22.0 mph 66 % 0.00 in 471 W/m2
11:39 63.7 °F 51.7 °F 29.86 in West 12.0 mph 19.0 mph 65 % 0.00 in 480 W/m2
11:44 64.0 °F 51.6 °F 29.85 in West 11.0 mph 19.0 mph 64 % 0.00 in 726 W/m2
11:50 64.9 °F 52.5 °F 29.85 in West 11.0 mph 21.0 mph 64 % 0.00 in 464 W/m2
11:55 64.9 °F 51.6 °F 29.85 in West 12.0 mph 22.0 mph 62 % 0.00 in 441 W/m2
12:00 64.9 °F 51.6 °F 29.85 in West 12.0 mph 23.0 mph 62 % 0.00 in 594 W/m2
12:05 65.3 °F 52.4 °F 29.85 in West 10.0 mph 23.0 mph 63 % 0.00 in 526 W/m2
12:10 65.5 °F 52.5 °F 29.85 in West 11.0 mph 20.0 mph 63 % 0.00 in 570 W/m2
12:15 65.5 °F 52.1 °F 29.85 in WSW 12.0 mph 21.0 mph 62 % 0.00 in 853 W/m2
12:20 65.8 °F 52.0 °F 29.85 in WSW 13.0 mph 23.0 mph 61 % 0.00 in 1062 W/m2
12:25 66.4 °F 52.5 °F 29.85 in West 13.0 mph 23.0 mph 61 % 0.00 in 932 W/m2
12:30 66.7 °F 52.0 °F 29.85 in West 14.0 mph 22.0 mph 59 % 0.00 in 686 W/m2
12:35 66.4 °F 52.1 °F 29.85 in WSW 14.0 mph 22.0 mph 60 % 0.00 in 591 W/m2
12:40 66.2 °F 51.9 °F 29.85 in WSW 12.0 mph 20.0 mph 60 % 0.00 in 406 W/m2
12:45 65.5 °F 52.5 °F 29.85 in WSW 12.0 mph 22.0 mph 63 % 0.00 in 534 W/m2
12:50 65.5 °F 53.0 °F 29.85 in WSW 11.0 mph 22.0 mph 64 % 0.00 in 362 W/m2
12:55 65.5 °F 52.1 °F 29.85 in WSW 11.0 mph 20.0 mph 62 % 0.00 in 680 W/m2
13:00 66.0 °F 53.1 °F 29.84 in WSW 12.0 mph 20.0 mph 63 % 0.00 in 1151 W/m2
13:05 66.9 °F 53.0 °F 29.85 in West 12.0 mph 20.0 mph 61 % 0.00 in 589 W/m2
13:10 67.6 °F 53.7 °F 29.85 in West 10.0 mph 20.0 mph 61 % 0.00 in 459 W/m2
13:15 67.5 °F 52.6 °F 29.85 in West 11.0 mph 19.0 mph 59 % 0.00 in 499 W/m2
13:20 66.9 °F 53.5 °F 29.85 in WSW 12.0 mph 21.0 mph 62 % 0.00 in 366 W/m2
13:25 66.4 °F 53.4 °F 29.85 in WSW 12.0 mph 21.0 mph 63 % 0.00 in 429 W/m2
13:30 66.0 °F 53.9 °F 29.85 in West 12.0 mph 21.0 mph 65 % 0.00 in 422 W/m2
13:35 65.8 °F 53.7 °F 29.85 in West 11.0 mph 20.0 mph 65 % 0.00 in 315 W/m2
13:36 65.7 °F 53.6 °F 29.85 in West 12.0 mph 20.0 mph 65 % 0.00 in 315 W/m2
13:41 65.3 °F 53.6 °F 29.85 in West 11.0 mph 18.0 mph 66 % 0.00 in 408 W/m2
13:46 65.1 °F 53.5 °F 29.85 in West 12.0 mph 20.0 mph 66 % 0.00 in 338 W/m2
13:51 64.6 °F 53.0 °F 29.85 in West 13.0 mph 22.0 mph 66 % 0.00 in 218 W/m2
13:56 64.4 °F 53.6 °F 29.85 in WSW 11.0 mph 22.0 mph 68 % 0.00 in 406 W/m2
14:01 64.8 °F 53.9 °F 29.85 in WSW 9.0 mph 18.0 mph 68 % 0.00 in 250 W/m2
14:06 64.6 °F 53.4 °F 29.85 in WSW 11.0 mph 19.0 mph 67 % 0.00 in 246 W/m2
14:11 63.9 °F 53.1 °F 29.85 in WSW 12.0 mph 19.0 mph 68 % 0.00 in 178 W/m2
14:16 63.3 °F 53.0 °F 29.85 in WSW 12.0 mph 19.0 mph 69 % 0.00 in 125 W/m2
14:21 63.1 °F 53.2 °F 29.85 in West 11.0 mph 18.0 mph 70 % 0.00 in 162 W/m2
14:26 63.1 °F 53.2 °F 29.85 in West 10.0 mph 20.0 mph 70 % 0.00 in 148 W/m2
14:31 63.1 °F 53.6 °F 29.85 in West 11.0 mph 20.0 mph 71 % 0.00 in 237 W/m2
14:36 63.1 °F 53.2 °F 29.85 in West 10.0 mph 19.0 mph 70 % 0.00 in 216 W/m2
14:41 63.3 °F 53.4 °F 29.84 in West 10.0 mph 19.0 mph 70 % 0.00 in 283 W/m2
14:46 63.3 °F 53.0 °F 29.85 in West 12.0 mph 21.0 mph 69 % 0.00 in 251 W/m2
14:51 63.3 °F 53.0 °F 29.84 in WSW 13.0 mph 21.0 mph 69 % 0.00 in 292 W/m2
14:56 63.3 °F 53.0 °F 29.84 in West 13.0 mph 21.0 mph 69 % 0.00 in 299 W/m2
15:01 63.5 °F 53.1 °F 29.84 in WSW 12.0 mph 20.0 mph 69 % 0.00 in 237 W/m2
15:06 63.7 °F 53.7 °F 29.84 in WSW 11.0 mph 22.0 mph 70 % 0.00 in 241 W/m2
15:12 63.7 °F 53.7 °F 29.84 in West 10.0 mph 22.0 mph 70 % 0.00 in 237 W/m2
15:17 63.3 °F 53.4 °F 29.84 in West 11.0 mph 18.0 mph 70 % 0.00 in 250 W/m2
15:22 63.7 °F 53.7 °F 29.84 in WSW 9.0 mph 18.0 mph 70 % 0.00 in 225 W/m2
15:27 63.9 °F 53.9 °F 29.84 in WSW 8.0 mph 14.0 mph 70 % 0.00 in 334 W/m2
15:32 63.9 °F 53.5 °F 29.84 in WSW 11.0 mph 20.0 mph 69 % 0.00 in 526 W/m2
15:37 64.9 °F 53.7 °F 29.83 in West 12.0 mph 20.0 mph 67 % 0.00 in 694 W/m2
15:42 65.5 °F 54.2 °F 29.83 in WSW 12.0 mph 21.0 mph 67 % 0.00 in 515 W/m2
15:47 66.0 °F 54.7 °F 29.83 in WSW 12.0 mph 21.0 mph 67 % 0.00 in 1007 W/m2
15:52 66.4 °F 54.3 °F 29.83 in WSW 11.0 mph 19.0 mph 65 % 0.00 in 410 W/m2
15:57 66.4 °F 54.3 °F 29.83 in WSW 12.0 mph 21.0 mph 65 % 0.00 in 410 W/m2
16:02 66.4 °F 54.7 °F 29.83 in WSW 12.0 mph 21.0 mph 66 % 0.00 in 339 W/m2
16:07 66.0 °F 54.7 °F 29.82 in WSW 12.0 mph 20.0 mph 67 % 0.00 in 338 W/m2
16:12 66.2 °F 54.9 °F 29.82 in WSW 11.0 mph 20.0 mph 67 % 0.00 in 265 W/m2
16:17 66.0 °F 54.7 °F 29.82 in WSW 11.0 mph 20.0 mph 67 % 0.00 in 218 W/m2
16:22 65.8 °F 55.0 °F 29.83 in WSW 11.0 mph 19.0 mph 68 % 0.00 in 234 W/m2
16:27 66.2 °F 55.3 °F 29.82 in West 11.0 mph 19.0 mph 68 % 0.00 in 772 W/m2
16:32 66.7 °F 55.0 °F 29.82 in West 11.0 mph 23.0 mph 66 % 0.00 in 810 W/m2
16:37 67.5 °F 55.3 °F 29.82 in West 11.0 mph 23.0 mph 65 % 0.00 in 751 W/m2
16:42 68.0 °F 54.9 °F 29.82 in West 12.0 mph 25.0 mph 63 % 0.00 in 761 W/m2
16:47 67.6 °F 54.6 °F 29.82 in West 14.0 mph 25.0 mph 63 % 0.00 in 260 W/m2
16:52 67.5 °F 54.9 °F 29.82 in West 13.0 mph 22.0 mph 64 % 0.00 in 225 W/m2
16:57 67.3 °F 54.7 °F 29.82 in West 10.0 mph 22.0 mph 64 % 0.00 in 207 W/m2
17:02 67.3 °F 55.5 °F 29.81 in West 10.0 mph 18.0 mph 66 % 0.00 in 777 W/m2
17:07 67.1 °F 55.4 °F 29.81 in WSW 11.0 mph 19.0 mph 66 % 0.00 in 777 W/m2
17:12 67.5 °F 55.7 °F 29.81 in WSW 10.0 mph 19.0 mph 66 % 0.00 in 631 W/m2
17:17 67.6 °F 54.6 °F 29.81 in WSW 12.0 mph 25.0 mph 63 % 0.00 in 564 W/m2
17:22 67.5 °F 54.4 °F 29.80 in WSW 13.0 mph 25.0 mph 63 % 0.00 in 543 W/m2
17:27 67.5 °F 54.0 °F 29.80 in WSW 13.0 mph 23.0 mph 62 % 0.00 in 531 W/m2
17:32 67.5 °F 54.4 °F 29.80 in WSW 14.0 mph 23.0 mph 63 % 0.00 in 533 W/m2
17:37 67.1 °F 54.1 °F 29.80 in WSW 14.0 mph 23.0 mph 63 % 0.00 in 519 W/m2
17:42 66.9 °F 54.8 °F 29.80 in WSW 12.0 mph 22.0 mph 65 % 0.00 in 480 W/m2
17:47 66.7 °F 55.0 °F 29.80 in WSW 10.0 mph 20.0 mph 66 % 0.00 in 480 W/m2
17:52 66.6 °F 54.4 °F 29.80 in WSW 11.0 mph 20.0 mph 65 % 0.00 in 545 W/m2
17:57 66.7 °F 54.6 °F 29.79 in WSW 11.0 mph 19.0 mph 65 % 0.00 in 443 W/m2
18:02 67.1 °F 54.5 °F 29.79 in WSW 12.0 mph 22.0 mph 64 % 0.00 in 434 W/m2
18:07 67.3 °F 54.3 °F 29.79 in WSW 13.0 mph 24.0 mph 63 % 0.00 in 113 W/m2
18:08 67.3 °F 54.3 °F 29.79 in WSW 13.0 mph 24.0 mph 63 % 0.00 in 76 W/m2
18:13 66.6 °F 54.0 °F 29.79 in WSW 13.0 mph 24.0 mph 64 % 0.00 in 445 W/m2
18:18 66.4 °F 54.3 °F 29.79 in WSW 12.0 mph 21.0 mph 65 % 0.00 in 69 W/m2
18:23 66.0 °F 54.3 °F 29.79 in WSW 11.0 mph 18.0 mph 66 % 0.00 in 155 W/m2
18:28 65.8 °F 54.2 °F 29.79 in WSW 11.0 mph 19.0 mph 66 % 0.00 in 104 W/m2
18:33 65.7 °F 54.4 °F 29.79 in WSW 11.0 mph 19.0 mph 67 % 0.00 in 105 W/m2
18:38 65.7 °F 54.8 °F 29.79 in West 9.0 mph 18.0 mph 68 % 0.00 in 104 W/m2
18:43 65.8 °F 54.6 °F 29.79 in West 8.0 mph 15.0 mph 67 % 0.00 in 90 W/m2
18:48 65.8 °F 54.6 °F 29.79 in West 9.0 mph 16.0 mph 67 % 0.00 in 81 W/m2
18:53 66.0 °F 55.2 °F 29.79 in West 9.0 mph 16.0 mph 68 % 0.00 in 125 W/m2
18:58 66.0 °F 54.7 °F 29.79 in West 9.0 mph 21.0 mph 67 % 0.00 in 158 W/m2
19:03 65.8 °F 54.6 °F 29.78 in West 11.0 mph 21.0 mph 67 % 0.00 in 116 W/m2
19:08 65.7 °F 54.8 °F 29.79 in WSW 11.0 mph 20.0 mph 68 % 0.00 in 135 W/m2
19:13 65.7 °F 54.8 °F 29.78 in West 11.0 mph 20.0 mph 68 % 0.00 in 281 W/m2
19:18 65.5 °F 55.0 °F 29.78 in West 11.0 mph 20.0 mph 69 % 0.00 in 69 W/m2
19:23 65.7 °F 54.8 °F 29.78 in West 10.0 mph 20.0 mph 68 % 0.00 in 134 W/m2
19:28 65.5 °F 54.6 °F 29.78 in West 11.0 mph 20.0 mph 68 % 0.00 in 39 W/m2
19:33 65.1 °F 54.7 °F 29.79 in West 10.0 mph 19.0 mph 69 % 0.00 in 49 W/m2
19:35 64.9 °F 54.5 °F 29.79 in West 10.0 mph 16.0 mph 69 % 0.00 in 227 W/m2
19:40 64.9 °F 54.5 °F 29.79 in West 9.0 mph 15.0 mph 69 % 0.00 in 144 W/m2
19:45 65.1 °F 54.7 °F 29.79 in West 9.0 mph 16.0 mph 69 % 0.00 in 84 W/m2
19:50 64.9 °F 54.9 °F 29.79 in West 9.0 mph 16.0 mph 70 % 0.00 in 47 W/m2
19:55 64.9 °F 54.9 °F 29.78 in West 8.0 mph 15.0 mph 70 % 0.00 in 165 W/m2
20:00 64.9 °F 54.9 °F 29.78 in West 9.0 mph 15.0 mph 70 % 0.00 in 97 W/m2
20:05 65.1 °F 54.7 °F 29.78 in West 9.0 mph 19.0 mph 69 % 0.00 in 97 W/m2
20:10 64.9 °F 54.1 °F 29.78 in West 10.0 mph 19.0 mph 68 % 0.00 in 42 W/m2
20:15 64.6 °F 53.8 °F 29.79 in West 10.0 mph 16.0 mph 68 % 0.00 in 46 W/m2
20:21 64.4 °F 54.0 °F 29.79 in West 11.0 mph 20.0 mph 69 % 0.00 in 53 W/m2
20:26 64.2 °F 53.8 °F 29.79 in West 10.0 mph 20.0 mph 69 % 0.00 in 53 W/m2
20:31 64.0 °F 54.1 °F 29.79 in West 9.0 mph 14.0 mph 70 % 0.00 in 40 W/m2
20:36 64.0 °F 54.1 °F 29.79 in West 9.0 mph 20.0 mph 70 % 0.00 in 53 W/m2
20:41 63.7 °F 54.1 °F 29.79 in West 11.0 mph 20.0 mph 71 % 0.00 in 25 W/m2
20:46 63.3 °F 53.8 °F 29.79 in West 11.0 mph 20.0 mph 71 % 0.00 in 19 W/m2
20:51 63.1 °F 54.0 °F 29.79 in WNW 10.0 mph 20.0 mph 72 % 0.00 in 16 W/m2
20:56 62.8 °F 53.6 °F 29.79 in WNW 10.0 mph 18.0 mph 72 % 0.00 in 12 W/m2
21:01 62.4 °F 53.6 °F 29.80 in WNW 10.0 mph 19.0 mph 73 % 0.00 in 12 W/m2
21:06 62.1 °F 53.7 °F 29.79 in WNW 10.0 mph 19.0 mph 74 % 0.00 in 11 W/m2
21:11 61.7 °F 53.3 °F 29.79 in WNW 9.0 mph 15.0 mph 74 % 0.00 in 12 W/m2
21:16 61.3 °F 53.3 °F 29.80 in WNW 9.0 mph 15.0 mph 75 % 0.00 in 11 W/m2
21:21 61.2 °F 53.2 °F 29.80 in WNW 8.0 mph 13.0 mph 75 % 0.00 in 11 W/m2
21:26 61.0 °F 53.0 °F 29.80 in WNW 8.0 mph 13.0 mph 75 % 0.00 in 11 W/m2
21:31 60.6 °F 53.0 °F 29.80 in WNW 8.0 mph 13.0 mph 76 % 0.00 in 9 W/m2
21:36 60.4 °F 52.8 °F 29.80 in West 6.0 mph 13.0 mph 76 % 0.00 in 5 W/m2
21:37 60.4 °F 52.8 °F 29.80 in West 6.0 mph 13.0 mph 76 % 0.00 in 5 W/m2
21:42 60.3 °F 52.3 °F 29.80 in West 6.0 mph 12.0 mph 75 % 0.00 in 0 W/m2
21:47 60.1 °F 52.1 °F 29.80 in West 7.0 mph 12.0 mph 75 % 0.00 in 0 W/m2
21:52 59.9 °F 52.0 °F 29.80 in West 6.0 mph 12.0 mph 75 % 0.00 in 0 W/m2
21:57 59.7 °F 51.4 °F 29.80 in West 6.0 mph 12.0 mph 74 % 0.00 in 0 W/m2
22:02 59.5 °F 51.2 °F 29.80 in West 6.0 mph 12.0 mph 74 % 0.00 in 0 W/m2
22:07 59.5 °F 51.6 °F 29.80 in West 5.0 mph 10.0 mph 75 % 0.00 in 0 W/m2
22:12 59.4 °F 51.4 °F 29.80 in WSW 5.0 mph 9.0 mph 75 % 0.00 in 0 W/m2
22:17 59.4 °F 51.4 °F 29.80 in WSW 4.0 mph 8.0 mph 75 % 0.00 in 0 W/m2
22:22 59.4 °F 51.4 °F 29.80 in WSW 5.0 mph 9.0 mph 75 % 0.00 in 0 W/m2
22:27 59.4 °F 51.4 °F 29.80 in WSW 6.0 mph 12.0 mph 75 % 0.00 in 0 W/m2
22:32 59.4 °F 51.1 °F 29.80 in West 7.0 mph 15.0 mph 74 % 0.00 in 0 W/m2
22:37 59.4 °F 51.1 °F 29.81 in West 9.0 mph 15.0 mph 74 % 0.00 in 0 W/m2
22:42 59.4 °F 51.4 °F 29.80 in West 10.0 mph 19.0 mph 75 % 0.00 in 0 W/m2
22:47 59.4 °F 51.4 °F 29.80 in West 11.0 mph 19.0 mph 75 % 0.00 in 0 W/m2
22:52 59.0 °F 51.4 °F 29.80 in West 10.0 mph 16.0 mph 76 % 0.00 in 0 W/m2
22:58 58.8 °F 51.6 °F 29.80 in West 9.0 mph 16.0 mph 77 % 0.00 in 0 W/m2
23:03 58.6 °F 51.8 °F 29.80 in West 9.0 mph 16.0 mph 78 % 0.00 in 0 W/m2
23:08 58.5 °F 51.6 °F 29.80 in WSW 10.0 mph 19.0 mph 78 % 0.00 in 0 W/m2
23:13 58.5 °F 52.0 °F 29.80 in West 10.0 mph 19.0 mph 79 % 0.00 in 0 W/m2
23:18 58.5 °F 52.0 °F 29.80 in West 9.0 mph 19.0 mph 79 % 0.00 in 0 W/m2
23:23 58.3 °F 52.1 °F 29.80 in West 8.0 mph 12.0 mph 80 % 0.00 in 0 W/m2
23:28 58.3 °F 52.1 °F 29.81 in West 8.0 mph 15.0 mph 80 % 0.00 in 0 W/m2
23:33 58.3 °F 52.1 °F 29.80 in West 8.0 mph 15.0 mph 80 % 0.00 in 0 W/m2
23:38 58.3 °F 52.1 °F 29.80 in West 8.0 mph 13.0 mph 80 % 0.00 in 0 W/m2
23:43 58.3 °F 52.1 °F 29.80 in West 9.0 mph 15.0 mph 80 % 0.00 in 0 W/m2
23:48 58.3 °F 52.1 °F 29.80 in West 9.0 mph 15.0 mph 80 % 0.00 in 0 W/m2
23:53 58.5 °F 52.3 °F 29.80 in WSW 8.0 mph 15.0 mph 80 % 0.00 in 0 W/m2
23:58 58.5 °F 52.6 °F 29.80 in West 8.0 mph 15.0 mph 81 % 0.00 in 0 W/m2
Delerius-Weather
Compliments of Weather Underground - 2.25 mb

Data updates at regular intervals.